MDPC - Punta Cana
MDPC 080300Z 08006KT 9999 FEW018 SCT300 28/26 Q1015
Observed:
Wind:
visibility:
Flight Rules:
Cloud Levels:
Temperature:
Humidity:
Pressure: